createdAt,value
2023-04-21T00:04:34.558Z,100.00
2023-04-21T00:09:37.682Z,100.00
2023-04-21T00:14:42.120Z,100.00
2023-04-21T00:19:45.048Z,100.00
2023-04-21T00:24:48.735Z,100.00
2023-04-21T00:29:53.058Z,100.00
2023-04-21T00:34:56.062Z,100.00
2023-04-21T00:39:59.869Z,100.00
2023-04-21T00:45:04.899Z,100.00
2023-04-21T00:50:08.190Z,100.00
2023-04-21T00:55:14.050Z,100.00
2023-04-21T01:00:20.806Z,100.00
2023-04-21T01:05:29.330Z,100.00
2023-04-21T01:10:33.511Z,100.00
2023-04-21T01:15:37.984Z,100.00
2023-04-21T01:20:50.186Z,100.00
2023-04-21T01:25:55.587Z,100.00
2023-04-21T01:30:58.913Z,100.00
2023-04-21T01:36:02.270Z,100.00
2023-04-21T01:41:07.170Z,100.00
2023-04-21T01:46:10.746Z,100.00
2023-04-21T01:51:14.213Z,100.00
2023-04-21T01:56:18.949Z,100.00
2023-04-21T02:01:21.991Z,100.00
2023-04-21T02:06:25.096Z,100.00
2023-04-21T02:11:30.475Z,100.00
2023-04-21T02:16:33.679Z,100.00
2023-04-21T02:21:37.038Z,100.00
2023-04-21T02:26:41.518Z,100.00
2023-04-21T02:31:57.869Z,100.00
2023-04-21T02:37:06.569Z,100.00
2023-04-21T02:42:11.594Z,100.00
2023-04-21T02:47:17.234Z,100.00
2023-04-21T02:52:20.197Z,100.00
2023-04-21T02:57:24.951Z,100.00
2023-04-21T03:02:28.077Z,100.00
2023-04-21T03:07:31.167Z,100.00
2023-04-21T03:12:35.591Z,100.00
2023-04-21T03:17:40.016Z,100.00
2023-04-21T03:22:42.958Z,100.00
2023-04-21T03:27:47.462Z,100.00
2023-04-21T03:32:51.352Z,100.00
2023-04-21T03:37:54.337Z,100.00
2023-04-21T03:42:58.750Z,100.00
2023-04-21T03:48:02.018Z,100.00
2023-04-21T03:53:05.008Z,100.00
2023-04-21T03:58:09.344Z,100.00
2023-04-21T04:03:12.457Z,100.00
2023-04-21T04:08:15.697Z,100.00
2023-04-21T04:13:21.577Z,100.00
2023-04-21T04:18:24.555Z,100.00
2023-04-21T04:23:27.906Z,100.00
2023-04-21T04:28:33.160Z,100.00
2023-04-21T04:33:36.215Z,100.00
2023-04-21T04:38:40.396Z,100.00
2023-04-21T04:43:45.061Z,100.00
2023-04-21T04:48:48.534Z,100.00
2023-04-21T04:53:51.488Z,100.00
2023-04-21T04:58:58.446Z,100.00
2023-04-21T05:04:01.799Z,100.00
2023-04-21T05:09:05.942Z,100.00
2023-04-21T05:14:10.552Z,100.00
2023-04-21T05:19:13.626Z,100.00
2023-04-21T05:24:17.105Z,100.00
2023-04-21T05:29:22.019Z,100.00
2023-04-21T05:34:25.134Z,100.00
2023-04-21T05:39:28.808Z,100.00
2023-04-21T05:44:33.206Z,100.00
2023-04-21T05:49:39.599Z,100.00
2023-04-21T05:54:42.780Z,100.00
2023-04-21T05:59:47.562Z,100.00
2023-04-21T06:04:54.095Z,100.00
2023-04-21T06:09:58.236Z,100.00
2023-04-21T06:15:02.809Z,100.00
2023-04-21T06:20:07.036Z,100.00
2023-04-21T06:25:10.366Z,100.00
2023-04-21T06:30:15.265Z,100.00
2023-04-21T06:35:20.844Z,100.00
2023-04-21T06:40:23.897Z,100.00
2023-04-21T06:45:28.374Z,100.00
2023-04-21T06:50:31.442Z,100.00
2023-04-21T06:55:34.976Z,100.00
2023-04-21T07:00:43.945Z,100.00
2023-04-21T07:05:47.350Z,100.00
2023-04-21T07:10:52.201Z,100.00
2023-04-21T07:15:57.593Z,100.00
2023-04-21T07:21:00.765Z,98.20
2023-04-21T07:26:03.806Z,97.60
2023-04-21T07:31:10.088Z,97.25
2023-04-21T07:36:13.365Z,98.20
2023-04-21T07:41:16.742Z,98.49
2023-04-21T07:46:24.346Z,98.02
2023-04-21T07:51:28.759Z,95.89
2023-04-21T07:56:31.946Z,95.22
2023-04-21T08:01:36.498Z,96.16
2023-04-21T08:06:39.707Z,94.12
2023-04-21T08:11:42.836Z,94.56
2023-04-21T08:16:47.703Z,92.94
2023-04-21T08:21:52.968Z,92.92
2023-04-21T08:26:56.080Z,92.67
2023-04-21T08:32:00.702Z,93.47
2023-04-21T08:37:03.900Z,94.33
2023-04-21T08:42:07.688Z,93.18
2023-04-21T08:47:13.291Z,94.61
2023-04-21T08:52:16.379Z,91.30
2023-04-21T08:57:19.632Z,86.89
2023-04-21T09:02:24.071Z,89.56
2023-04-21T09:07:34.892Z,90.44
2023-04-21T09:12:40.902Z,87.36
2023-04-21T09:17:46.740Z,85.96
2023-04-21T09:22:51.266Z,84.89
2023-04-21T09:27:56.162Z,83.61
2023-04-21T09:33:08.312Z,84.24
2023-04-21T09:38:17.301Z,82.88
2023-04-21T09:43:20.404Z,82.97
2023-04-21T09:48:28.686Z,80.76
2023-04-21T09:53:37.140Z,80.22
2023-04-21T09:58:45.440Z,79.16
2023-04-21T10:03:50.950Z,76.09
2023-04-21T10:08:58.554Z,77.18
2023-04-21T10:14:01.754Z,77.58
2023-04-21T10:19:24.752Z,75.07
2023-04-21T10:24:30.501Z,71.24
2023-04-21T10:34:43.213Z,72.00
2023-04-21T10:39:52.372Z,73.60
2023-04-21T10:45:04.192Z,72.92
2023-04-21T10:50:15.754Z,72.48
2023-04-21T10:55:20.685Z,72.43
2023-04-21T11:00:25.362Z,72.66
2023-04-21T11:05:36.539Z,70.10
2023-04-21T11:10:48.591Z,69.91
2023-04-21T11:16:03.557Z,70.94
2023-04-21T11:21:13.848Z,70.21
2023-04-21T11:26:17.144Z,71.93
2023-04-21T11:31:20.254Z,69.79
2023-04-21T11:36:24.985Z,68.74
2023-04-21T11:41:28.345Z,69.13
2023-04-21T11:46:33.684Z,69.22
2023-04-21T11:51:40.056Z,67.67
2023-04-21T11:56:44.733Z,69.03
2023-04-21T12:01:48.992Z,69.98
2023-04-21T12:06:59.239Z,67.14
2023-04-21T12:12:05.483Z,73.38
2023-04-21T12:17:08.703Z,70.99
2023-04-21T12:22:14.636Z,68.77
2023-04-21T12:27:19.217Z,65.81
2023-04-21T12:32:22.690Z,69.74
2023-04-21T12:37:27.258Z,68.03
2023-04-21T12:42:30.438Z,70.65
2023-04-21T12:47:33.937Z,71.25
2023-04-21T12:52:38.387Z,70.19
2023-04-21T12:57:41.399Z,70.28
2023-04-21T13:02:44.801Z,69.82
2023-04-21T13:07:49.673Z,69.73
2023-04-21T13:12:52.765Z,73.10
2023-04-21T13:17:55.882Z,72.40
2023-04-21T13:23:00.355Z,72.35
2023-04-21T13:28:07.514Z,71.29
2023-04-21T13:33:11.138Z,69.59
2023-04-21T13:38:15.683Z,70.55
2023-04-21T13:43:19.195Z,68.44
2023-04-21T13:48:24.327Z,66.96
2023-04-21T13:53:28.883Z,70.30
2023-04-21T13:58:31.906Z,72.37
2023-04-21T14:03:35.060Z,71.86
2023-04-21T14:08:40.137Z,71.02
2023-04-21T14:13:56.069Z,70.88
2023-04-21T14:19:06.795Z,70.41
2023-04-21T14:24:12.491Z,69.26
2023-04-21T14:29:15.804Z,72.41
2023-04-21T14:34:18.787Z,72.74
2023-04-21T14:39:23.270Z,71.41
2023-04-21T14:44:26.637Z,70.54
2023-04-21T14:49:30.082Z,72.17
2023-04-21T14:54:34.612Z,69.40
2023-04-21T14:59:37.752Z,70.74
2023-04-21T15:04:40.890Z,70.68
2023-04-21T15:09:45.945Z,70.67
2023-04-21T15:14:49.049Z,68.09
2023-04-21T15:19:52.176Z,69.16
2023-04-21T15:24:56.813Z,67.97
2023-04-21T15:30:00.023Z,70.47
2023-04-21T15:35:03.193Z,70.84
2023-04-21T15:40:09.687Z,70.31
2023-04-21T15:45:17.831Z,71.20
2023-04-21T15:50:20.972Z,71.26
2023-04-21T15:55:27.859Z,68.74
2023-04-21T16:00:30.936Z,69.31
2023-04-21T16:05:36.178Z,68.07
2023-04-21T16:10:40.769Z,68.97
2023-04-21T16:15:43.911Z,67.59
2023-04-21T16:20:47.468Z,69.21
2023-04-21T16:25:52.166Z,66.69
2023-04-21T16:30:55.429Z,66.14
2023-04-21T16:35:58.467Z,64.72
2023-04-21T16:41:03.099Z,72.87
2023-04-21T16:46:07.395Z,77.12
2023-04-21T16:51:10.665Z,75.25
2023-04-21T16:56:15.696Z,74.48
2023-04-21T17:01:19.775Z,72.91
2023-04-21T17:06:23.069Z,72.56
2023-04-21T17:11:28.952Z,73.45
2023-04-21T17:16:32.413Z,73.17
2023-04-21T17:21:35.945Z,72.56
2023-04-21T17:26:40.887Z,73.00
2023-04-21T17:31:44.090Z,72.32
2023-04-21T17:36:50.105Z,71.93
2023-04-21T17:41:54.683Z,71.97
2023-04-21T17:46:58.149Z,71.60
2023-04-21T17:52:01.381Z,74.08
2023-04-21T17:57:06.814Z,75.14
2023-04-21T18:02:09.991Z,72.84
2023-04-21T18:07:16.261Z,71.55
2023-04-21T18:12:20.654Z,75.11
2023-04-21T18:17:24.270Z,79.05
2023-04-21T18:22:27.466Z,81.46
2023-04-21T18:27:31.918Z,82.84
2023-04-21T18:32:35.471Z,81.44
2023-04-21T18:37:38.550Z,80.88
2023-04-21T18:42:43.223Z,81.11
2023-04-21T18:47:46.947Z,81.92
2023-04-21T18:52:50.211Z,82.75
2023-04-21T18:57:56.615Z,83.46
2023-04-21T19:03:01.543Z,84.16
2023-04-21T19:08:05.651Z,84.54
2023-04-21T19:13:10.599Z,85.41
2023-04-21T19:18:13.743Z,85.77
2023-04-21T19:23:16.911Z,86.28
2023-04-21T19:28:21.564Z,86.34
2023-04-21T19:33:24.684Z,87.04
2023-04-21T19:38:28.031Z,87.71
2023-04-21T19:43:32.773Z,87.62
2023-04-21T19:48:36.018Z,87.44
2023-04-21T19:53:39.439Z,88.31
2023-04-21T19:58:45.253Z,88.66
2023-04-21T20:03:51.709Z,88.49
2023-04-21T20:08:55.473Z,89.16
2023-04-21T20:14:00.448Z,89.06
2023-04-21T20:19:04.406Z,89.70
2023-04-21T20:24:08.769Z,89.65
2023-04-21T20:29:13.231Z,87.53
2023-04-21T20:34:16.293Z,86.20
2023-04-21T20:39:19.455Z,85.87
2023-04-21T20:44:24.403Z,85.56
2023-04-21T20:49:28.042Z,86.81
2023-04-21T20:54:31.154Z,89.43
2023-04-21T20:59:35.877Z,93.46
2023-04-21T21:04:39.784Z,96.46
2023-04-21T21:09:43.172Z,98.73
2023-04-21T21:14:47.568Z,100.00
2023-04-21T21:19:50.920Z,100.00
2023-04-21T21:24:54.142Z,100.00
2023-04-21T21:29:58.731Z,100.00
2023-04-21T21:35:01.893Z,100.00
2023-04-21T21:40:06.183Z,100.00
2023-04-21T21:45:12.012Z,100.00
2023-04-21T21:50:14.999Z,100.00
2023-04-21T21:55:18.326Z,100.00
2023-04-21T22:00:23.915Z,100.00
2023-04-21T22:05:27.101Z,100.00
2023-04-21T22:10:30.302Z,100.00
2023-04-21T22:15:37.026Z,100.00
2023-04-21T22:20:40.229Z,100.00
2023-04-21T22:25:43.411Z,100.00
2023-04-21T22:30:52.127Z,100.00
2023-04-21T22:35:55.216Z,100.00
2023-04-21T22:40:58.282Z,100.00
2023-04-21T22:46:03.350Z,100.00
2023-04-21T22:51:07.320Z,100.00
2023-04-21T22:56:10.490Z,100.00
2023-04-21T23:01:15.097Z,100.00
2023-04-21T23:06:18.221Z,100.00
2023-04-21T23:11:21.362Z,100.00
2023-04-21T23:16:26.430Z,100.00
2023-04-21T23:21:29.571Z,100.00
2023-04-21T23:26:32.595Z,100.00
2023-04-21T23:31:37.425Z,100.00
2023-04-21T23:36:40.469Z,100.00
2023-04-21T23:41:43.827Z,100.00
2023-04-21T23:46:48.452Z,100.00
2023-04-21T23:51:51.983Z,100.00
2023-04-21T23:56:54.982Z,100.00
